Time;durP1;ratioP1;P1;durP2;ratioP2;P2;SDS_P1;SDS_P2;PMS_P1;PMS_P2;Temp;Humidity;BMP_temperature;BMP_pressure;BME280_temperature;BME280_humidity;BME280_pressure;Samples;Min_cycle;Max_cycle;Signal;HPM_P1;HPM_P2
2023/12/11 00:02:27;;;;;;;0.35;0.13;;;11.40;99.90;;;;;;4959943;29;20027;-77
2023/12/11 00:04:54;;;;;;;0.10;0.10;;;11.40;99.90;;;;;;4944555;29;20059;-76
2023/12/11 00:07:20;;;;;;;0.00;0.00;;;11.50;99.90;;;;;;4964418;29;20024;-75
2023/12/11 00:09:45;;;;;;;0.00;0.00;;;11.70;99.90;;;;;;4964097;29;20065;-76
2023/12/11 00:12:15;;;;;;;0.00;0.00;;;11.70;99.90;;;;;;4947693;29;20078;-75
2023/12/11 00:14:40;;;;;;;0.00;0.00;;;11.60;99.90;;;;;;4965262;29;20032;-77
2023/12/11 00:17:06;;;;;;;0.00;0.00;;;11.80;99.90;;;;;;4965962;29;20039;-75
2023/12/11 00:19:31;;;;;;;0.08;0.00;;;11.80;99.90;;;;;;4968762;28;20019;-75
2023/12/11 00:21:57;;;;;;;0.00;0.00;;;11.90;99.90;;;;;;4965620;29;20078;-77
2023/12/11 00:24:23;;;;;;;0.63;0.30;;;12.00;99.90;;;;;;4963549;29;20034;-75
2023/12/11 00:26:48;;;;;;;0.40;0.00;;;12.00;99.90;;;;;;4967542;29;20157;-75
2023/12/11 00:29:14;;;;;;;0.00;0.00;;;12.00;99.90;;;;;;4950149;29;20031;-76
2023/12/11 00:31:41;;;;;;;0.00;0.00;;;12.00;99.90;;;;;;4967114;29;20035;-75
2023/12/11 00:34:07;;;;;;;0.00;0.00;;;12.00;99.90;;;;;;4951006;29;20031;-75
2023/12/11 00:36:32;;;;;;;0.10;0.10;;;12.10;99.90;;;;;;4964038;29;20035;-76
2023/12/11 00:38:59;;;;;;;0.00;0.00;;;12.20;99.90;;;;;;4962376;29;20452;-76
2023/12/11 00:41:25;;;;;;;0.00;0.00;;;12.20;99.90;;;;;;4962089;29;20031;-78
2023/12/11 00:43:50;;;;;;;0.10;0.10;;;12.30;99.90;;;;;;4945471;29;20027;-76
2023/12/11 00:46:21;;;;;;;0.20;0.08;;;12.30;99.90;;;;;;4962796;29;20039;-75
2023/12/11 00:48:47;;;;;;;1.17;0.22;;;12.40;99.90;;;;;;4962771;29;20023;-75
2023/12/11 00:51:16;;;;;;;0.10;0.10;;;12.40;99.90;;;;;;4947805;29;20163;-75
2023/12/11 00:53:42;;;;;;;0.00;0.00;;;12.40;99.90;;;;;;4963491;29;20027;-76
2023/12/11 00:56:08;;;;;;;0.08;0.00;;;12.30;99.90;;;;;;4964045;29;20094;-75
2023/12/11 00:58:35;;;;;;;0.00;0.00;;;12.30;99.90;;;;;;4962932;29;20515;-76
2023/12/11 01:01:00;;;;;;;2.00;0.43;;;12.30;99.90;;;;;;4962801;29;20110;-77
2023/12/11 01:03:26;;;;;;;0.03;0.00;;;12.30;99.90;;;;;;4930402;29;20058;-75
2023/12/11 01:05:52;;;;;;;0.10;0.10;;;12.30;99.90;;;;;;4962387;29;20038;-75
2023/12/11 01:08:17;;;;;;;0.08;0.00;;;12.30;99.90;;;;;;4962593;29;20081;-75
2023/12/11 01:10:45;;;;;;;0.30;0.10;;;12.40;99.90;;;;;;4962117;29;20031;-75
2023/12/11 01:13:10;;;;;;;0.00;0.00;;;12.40;99.90;;;;;;4961828;29;20480;-75
2023/12/11 01:15:36;;;;;;;0.82;0.10;;;12.40;99.90;;;;;;4960854;29;20035;-75
2023/12/11 01:18:07;;;;;;;0.00;0.00;;;12.40;99.90;;;;;;4962013;29;20468;-75
2023/12/11 01:20:32;;;;;;;0.10;0.10;;;12.50;99.90;;;;;;4961543;29;20051;-75
2023/12/11 01:22:58;;;;;;;0.15;0.00;;;12.40;99.90;;;;;;4963066;29;20038;-75
2023/12/11 01:25:24;;;;;;;0.00;0.00;;;12.40;99.90;;;;;;4945965;29;20059;-75
2023/12/11 01:27:53;;;;;;;0.10;0.10;;;12.40;99.90;;;;;;4968203;29;20093;-75
2023/12/11 01:30:21;;;;;;;0.10;0.10;;;12.40;99.90;;;;;;4949596;29;20495;-75
2023/12/11 01:32:47;;;;;;;0.32;0.32;;;12.30;99.90;;;;;;4966428;29;20019;-75
2023/12/11 01:35:13;;;;;;;0.10;0.10;;;12.40;99.90;;;;;;4966376;29;20027;-75
2023/12/11 01:37:43;;;;;;;0.00;0.00;;;12.40;99.90;;;;;;4965543;29;20035;-76
2023/12/11 01:40:28;;;;;;;0.03;0.03;;;12.50;99.90;;;;;;4965150;29;20070;-75
2023/12/11 01:42:53;;;;;;;0.10;0.10;;;12.40;99.90;;;;;;4949458;29;20027;-75
2023/12/11 01:45:19;;;;;;;0.38;0.05;;;12.40;99.90;;;;;;4964759;29;20030;-75
2023/12/11 01:47:45;;;;;;;0.03;0.03;;;12.40;99.90;;;;;;4966549;29;20033;-75
2023/12/11 01:50:10;;;;;;;0.38;0.10;;;12.30;99.90;;;;;;4950129;29;20385;-75
2023/12/11 01:52:38;;;;;;;0.20;0.10;;;12.30;99.90;;;;;;4948572;29;20029;-75
2023/12/11 01:55:08;;;;;;;0.20;0.20;;;12.40;99.90;;;;;;4967802;29;20023;-75
2023/12/11 01:57:34;;;;;;;0.80;0.08;;;12.30;99.90;;;;;;4966799;29;20083;-75
2023/12/11 02:00:12;;;;;;;0.10;0.00;;;12.30;99.90;;;;;;4968808;29;20023;-75
2023/12/11 02:02:38;;;;;;;0.00;0.00;;;12.30;99.90;;;;;;4968837;29;20159;-74
2023/12/11 02:05:04;;;;;;;0.00;0.00;;;12.30;99.90;;;;;;4951784;29;20023;-74
2023/12/11 02:07:29;;;;;;;0.10;0.10;;;12.30;99.90;;;;;;4966230;29;20483;-74
2023/12/11 02:09:55;;;;;;;1.27;0.00;;;12.40;99.90;;;;;;4962974;29;20050;-74
2023/12/11 02:12:21;;;;;;;0.00;0.00;;;12.30;99.90;;;;;;4946410;29;20047;-75
2023/12/11 02:14:46;;;;;;;0.20;0.10;;;12.30;99.90;;;;;;4962230;29;20063;-80
2023/12/11 02:17:12;;;;;;;0.43;0.10;;;12.30;99.90;;;;;;4945401;29;20031;-75
2023/12/11 02:19:38;;;;;;;0.00;0.00;;;12.30;99.90;;;;;;4963292;29;20023;-74
2023/12/11 02:22:04;;;;;;;0.05;0.00;;;12.30;99.90;;;;;;4963713;29;20376;-74
2023/12/11 02:24:37;;;;;;;1.20;0.45;;;12.20;99.90;;;;;;4962258;29;20028;-74
2023/12/11 02:27:03;;;;;;;0.00;0.00;;;12.20;99.90;;;;;;4963397;29;20055;-76
2023/12/11 02:29:28;;;;;;;0.00;0.00;;;12.10;99.90;;;;;;4959311;29;20027;-77
2023/12/11 02:31:54;;;;;;;0.17;0.10;;;11.90;99.90;;;;;;4941989;29;20366;-77
2023/12/11 02:34:19;;;;;;;0.05;0.05;;;11.80;99.90;;;;;;4942619;29;20028;-76
2023/12/11 02:36:45;;;;;;;0.00;0.00;;;11.70;99.90;;;;;;4957587;29;20036;-76
2023/12/11 02:39:11;;;;;;;0.00;0.00;;;11.60;99.90;;;;;;4942978;29;20032;-76
2023/12/11 02:41:36;;;;;;;0.47;0.03;;;11.60;99.90;;;;;;4960485;28;20023;-76
2023/12/11 02:44:02;;;;;;;0.00;0.00;;;11.60;99.90;;;;;;4964054;29;20034;-79
2023/12/11 02:46:28;;;;;;;0.00;0.00;;;11.60;99.90;;;;;;4946722;29;20035;-76
2023/12/11 02:48:54;;;;;;;0.77;0.08;;;11.60;99.90;;;;;;4947290;29;20027;-76
2023/12/11 02:51:19;;;;;;;0.00;0.00;;;11.60;99.90;;;;;;4964517;29;20101;-76
2023/12/11 02:53:45;;;;;;;0.20;0.00;;;11.60;99.90;;;;;;4945813;29;20027;-77
2023/12/11 02:56:11;;;;;;;0.00;0.00;;;11.60;99.90;;;;;;4963212;29;20031;-76
2023/12/11 02:58:37;;;;;;;0.05;0.00;;;11.50;99.90;;;;;;4962053;29;20098;-80
2023/12/11 03:01:04;;;;;;;0.05;0.03;;;11.60;99.90;;;;;;4947306;29;20030;-76
2023/12/11 03:03:29;;;;;;;0.08;0.08;;;11.60;99.90;;;;;;4947052;29;20507;-78
2023/12/11 03:05:55;;;;;;;0.00;0.00;;;11.60;99.90;;;;;;4962794;29;20031;-77
2023/12/11 03:08:20;;;;;;;0.00;0.00;;;11.60;99.90;;;;;;4947456;29;20033;-76
2023/12/11 03:10:46;;;;;;;0.08;0.08;;;11.60;99.90;;;;;;4946726;29;20042;-77
2023/12/11 03:13:12;;;;;;;0.75;0.10;;;11.60;99.90;;;;;;4964154;29;20381;-80
2023/12/11 03:15:37;;;;;;;0.17;0.17;;;11.50;99.90;;;;;;4947755;29;20030;-79
2023/12/11 03:18:04;;;;;;;1.20;0.08;;;11.40;99.90;;;;;;4965307;29;20027;-77
2023/12/11 03:20:29;;;;;;;0.25;0.10;;;11.30;99.90;;;;;;4964425;29;20034;-80
2023/12/11 03:22:55;;;;;;;0.10;0.10;;;11.30;99.90;;;;;;4964706;29;20038;-78
2023/12/11 03:25:22;;;;;;;0.00;0.00;;;11.40;99.90;;;;;;4964146;29;20114;-76
2023/12/11 03:27:47;;;;;;;0.82;0.10;;;11.40;99.90;;;;;;4947073;29;20106;-77
2023/12/11 03:30:13;;;;;;;1.30;0.50;;;11.40;99.90;;;;;;4963768;29;20066;-77
2023/12/11 03:32:39;;;;;;;0.10;0.10;;;11.40;99.90;;;;;;4947587;29;20023;-77
2023/12/11 03:35:05;;;;;;;0.75;0.10;;;11.40;99.90;;;;;;4964157;29;20028;-76
2023/12/11 03:37:32;;;;;;;0.40;0.40;;;11.50;99.90;;;;;;4964570;29;20054;-74
2023/12/11 03:39:59;;;;;;;0.17;0.10;;;11.50;99.90;;;;;;4965412;29;20024;-75
2023/12/11 03:42:25;;;;;;;0.10;0.10;;;11.60;99.90;;;;;;4966952;29;20039;-75
2023/12/11 03:44:54;;;;;;;0.00;0.00;;;11.50;99.90;;;;;;4949565;29;20028;-76
2023/12/11 03:47:21;;;;;;;1.10;0.10;;;11.60;99.90;;;;;;4968889;29;20007;-75
2023/12/11 03:49:47;;;;;;;0.00;0.00;;;11.60;99.90;;;;;;4970822;29;20027;-75
2023/12/11 03:52:13;;;;;;;1.00;0.52;;;11.50;99.90;;;;;;4968135;29;20033;-75
2023/12/11 03:54:38;;;;;;;1.40;0.10;;;11.60;99.90;;;;;;4967191;28;20040;-75
2023/12/11 03:57:05;;;;;;;0.10;0.10;;;11.60;99.90;;;;;;4971871;29;20031;-75
2023/12/11 03:59:32;;;;;;;0.10;0.10;;;11.60;99.90;;;;;;4936453;29;20027;-75
2023/12/11 04:01:58;;;;;;;0.28;0.28;;;11.60;99.90;;;;;;4967453;29;20023;-75
2023/12/11 04:04:24;;;;;;;0.00;0.00;;;11.60;99.90;;;;;;4962448;29;20023;-78
2023/12/11 04:06:50;;;;;;;0.50;0.03;;;11.60;99.90;;;;;;4962806;29;20036;-76
2023/12/11 04:09:16;;;;;;;0.08;0.08;;;11.60;99.90;;;;;;4964177;29;20086;-75
2023/12/11 04:11:44;;;;;;;0.00;0.00;;;11.70;99.90;;;;;;4964327;29;20030;-75
2023/12/11 04:14:09;;;;;;;0.25;0.10;;;11.80;99.90;;;;;;4946865;29;20030;-74
2023/12/11 04:16:35;;;;;;;0.70;0.15;;;11.80;99.90;;;;;;4965110;29;20035;-76
2023/12/11 04:19:01;;;;;;;0.00;0.00;;;11.80;99.90;;;;;;4946252;29;20090;-74
2023/12/11 04:21:26;;;;;;;0.10;0.10;;;11.80;99.90;;;;;;4964272;29;20085;-76
2023/12/11 04:23:52;;;;;;;0.10;0.10;;;11.80;99.90;;;;;;4963214;29;20465;-75
2023/12/11 04:26:18;;;;;;;0.00;0.00;;;11.90;99.90;;;;;;4964864;29;20083;-75
2023/12/11 04:28:43;;;;;;;0.10;0.10;;;12.00;99.90;;;;;;4964734;29;20093;-76
2023/12/11 04:31:10;;;;;;;1.05;0.20;;;12.00;99.90;;;;;;4964406;29;20031;-75
2023/12/11 04:33:37;;;;;;;0.20;0.20;;;12.00;99.90;;;;;;4950068;29;20007;-75
2023/12/11 04:36:07;;;;;;;1.35;0.10;;;12.00;99.90;;;;;;4967686;29;20031;-75
2023/12/11 04:38:34;;;;;;;0.22;0.22;;;11.90;99.90;;;;;;4963487;29;20422;-75
2023/12/11 04:41:00;;;;;;;0.93;0.30;;;11.90;99.90;;;;;;4957947;29;20051;-76
2023/12/11 04:43:26;;;;;;;0.10;0.10;;;11.80;99.90;;;;;;4958135;29;20023;-76
2023/12/11 04:45:51;;;;;;;0.08;0.03;;;11.70;99.90;;;;;;4940275;29;20511;-77
2023/12/11 04:48:17;;;;;;;0.10;0.00;;;11.50;99.90;;;;;;4940093;29;20055;-78
2023/12/11 04:50:42;;;;;;;0.00;0.00;;;11.40;99.90;;;;;;4957426;29;20030;-77
2023/12/11 04:53:08;;;;;;;0.57;0.20;;;11.20;99.90;;;;;;4957235;29;20477;-79
2023/12/11 04:55:34;;;;;;;0.10;0.10;;;11.10;99.90;;;;;;4959307;29;20031;-79
2023/12/11 04:57:59;;;;;;;0.47;0.22;;;11.00;99.90;;;;;;4959466;29;20042;-76
2023/12/11 05:00:25;;;;;;;1.45;0.75;;;10.90;99.90;;;;;;4961090;29;20480;-78
2023/12/11 05:02:50;;;;;;;2.17;0.30;;;10.90;99.90;;;;;;4940633;29;20058;-77
2023/12/11 05:05:16;;;;;;;0.35;0.35;;;10.80;99.90;;;;;;4944417;29;20118;-76
2023/12/11 05:07:42;;;;;;;1.15;0.20;;;10.90;99.90;;;;;;4964991;29;20019;-77
2023/12/11 05:10:08;;;;;;;0.10;0.10;;;10.90;99.90;;;;;;4959360;29;20023;-79
2023/12/11 05:12:34;;;;;;;0.17;0.08;;;11.00;99.90;;;;;;4958026;29;20103;-74
2023/12/11 05:15:01;;;;;;;0.17;0.17;;;11.00;99.90;;;;;;4942239;29;20027;-75
2023/12/11 05:17:27;;;;;;;0.08;0.08;;;11.10;99.90;;;;;;4960238;29;20039;-77
2023/12/11 05:19:54;;;;;;;0.10;0.10;;;11.20;99.90;;;;;;4956601;29;20023;-73
2023/12/11 05:22:20;;;;;;;1.08;0.17;;;11.30;99.90;;;;;;4956741;29;20381;-74
2023/12/11 05:24:47;;;;;;;1.42;0.43;;;11.50;99.90;;;;;;4956776;29;20024;-77
2023/12/11 05:27:13;;;;;;;0.68;0.30;;;11.50;99.90;;;;;;4957604;29;20067;-76
2023/12/11 05:29:39;;;;;;;0.10;0.10;;;11.60;99.90;;;;;;4956191;29;20424;-76
2023/12/11 05:32:05;;;;;;;2.72;0.20;;;11.60;99.90;;;;;;4956376;29;20046;-76
2023/12/11 05:34:30;;;;;;;2.20;0.20;;;11.70;99.90;;;;;;4938976;29;20035;-76
2023/12/11 05:36:56;;;;;;;0.10;0.10;;;11.70;99.90;;;;;;4955665;29;20090;-76
2023/12/11 05:39:22;;;;;;;0.10;0.10;;;11.70;99.90;;;;;;4955944;29;20034;-76
2023/12/11 05:41:48;;;;;;;1.95;0.10;;;11.70;99.90;;;;;;4955928;29;20024;-76
2023/12/11 05:44:13;;;;;;;0.28;0.28;;;11.70;99.90;;;;;;4938420;29;20038;-75
2023/12/11 05:46:39;;;;;;;0.25;0.25;;;11.70;99.90;;;;;;4938863;29;20051;-75
2023/12/11 05:49:05;;;;;;;0.20;0.10;;;11.80;99.90;;;;;;4938807;29;20027;-76
2023/12/11 05:51:30;;;;;;;0.17;0.10;;;11.90;99.90;;;;;;4956359;29;20027;-76
2023/12/11 05:53:56;;;;;;;0.30;0.10;;;11.80;99.90;;;;;;4955750;29;20034;-76
2023/12/11 05:56:22;;;;;;;0.20;0.20;;;11.90;99.90;;;;;;4938646;29;20130;-76
2023/12/11 05:58:47;;;;;;;0.98;0.10;;;11.90;99.90;;;;;;4955673;29;20507;-76
2023/12/11 06:01:13;;;;;;;0.40;0.20;;;11.90;99.90;;;;;;4955916;29;20028;-78
2023/12/11 06:03:39;;;;;;;0.90;0.03;;;11.90;99.90;;;;;;4938599;29;20035;-75
2023/12/11 06:06:05;;;;;;;0.40;0.10;;;11.90;99.90;;;;;;4938730;29;20031;-77
2023/12/11 06:08:30;;;;;;;0.30;0.22;;;11.90;99.90;;;;;;4956003;29;20106;-75
2023/12/11 06:10:56;;;;;;;0.32;0.10;;;11.90;99.90;;;;;;4938450;29;20182;-76
2023/12/11 06:13:22;;;;;;;0.20;0.20;;;11.90;99.90;;;;;;4938292;29;20492;-77
2023/12/11 06:15:47;;;;;;;0.73;0.35;;;11.90;99.90;;;;;;4938395;29;20039;-76
2023/12/11 06:18:13;;;;;;;0.28;0.20;;;11.90;99.90;;;;;;4955236;28;20030;-76
2023/12/11 06:20:39;;;;;;;0.10;0.10;;;11.80;99.90;;;;;;4955754;29;20094;-76
2023/12/11 06:23:05;;;;;;;0.47;0.10;;;11.70;99.90;;;;;;4956912;29;20495;-77
2023/12/11 06:25:30;;;;;;;1.83;0.22;;;11.70;99.90;;;;;;4956066;29;20063;-76
2023/12/11 06:27:56;;;;;;;0.10;0.10;;;11.70;99.90;;;;;;4938411;29;20059;-77
2023/12/11 06:30:21;;;;;;;1.80;0.28;;;11.70;99.90;;;;;;4955740;29;20031;-76
2023/12/11 06:32:47;;;;;;;0.38;0.20;;;11.70;99.90;;;;;;4955649;29;20038;-76
2023/12/11 06:35:13;;;;;;;0.20;0.20;;;11.60;99.90;;;;;;4938189;29;20122;-76
2023/12/11 06:37:38;;;;;;;1.75;0.20;;;11.60;99.90;;;;;;4938254;29;20074;-75
2023/12/11 06:40:05;;;;;;;0.15;0.10;;;11.60;99.90;;;;;;4955576;29;20032;-75
2023/12/11 06:42:37;;;;;;;1.10;0.30;;;11.60;99.90;;;;;;4955628;29;20392;-76
2023/12/11 06:45:03;;;;;;;0.85;0.17;;;11.50;99.90;;;;;;4938090;29;20132;-76
2023/12/11 06:47:29;;;;;;;0.35;0.20;;;11.50;99.90;;;;;;4955302;29;20102;-77
2023/12/11 06:49:54;;;;;;;0.10;0.10;;;11.40;99.90;;;;;;4938054;29;20543;-77
2023/12/11 06:52:20;;;;;;;1.05;0.28;;;11.40;99.90;;;;;;4955542;29;20105;-76
2023/12/11 06:54:46;;;;;;;0.52;0.20;;;11.50;99.90;;;;;;4938276;29;20370;-76
2023/12/11 06:57:11;;;;;;;0.30;0.30;;;11.50;99.90;;;;;;4955240;29;20039;-77
2023/12/11 06:59:37;;;;;;;0.40;0.10;;;11.60;99.90;;;;;;4955405;29;20101;-76
2023/12/11 07:02:04;;;;;;;0.82;0.20;;;11.60;99.90;;;;;;4955641;29;20030;-76
2023/12/11 07:04:29;;;;;;;2.28;0.30;;;11.70;99.90;;;;;;4938167;29;20029;-76
2023/12/11 07:06:55;;;;;;;0.55;0.55;;;11.70;99.90;;;;;;4938266;29;20027;-77
2023/12/11 07:09:21;;;;;;;2.03;0.20;;;11.80;99.90;;;;;;4937842;29;20031;-76
2023/12/11 07:11:46;;;;;;;0.65;0.63;;;11.80;99.90;;;;;;4938368;29;20023;-76
2023/12/11 07:14:12;;;;;;;0.25;0.25;;;11.80;99.90;;;;;;4938216;29;20078;-77
2023/12/11 07:16:38;;;;;;;0.28;0.20;;;11.80;99.90;;;;;;4955350;29;20481;-76
2023/12/11 07:19:04;;;;;;;0.20;0.20;;;11.70;99.90;;;;;;4937702;29;20025;-76
2023/12/11 07:21:29;;;;;;;3.13;0.20;;;11.70;99.90;;;;;;4938303;29;20523;-76
2023/12/11 07:23:55;;;;;;;0.20;0.20;;;11.60;99.90;;;;;;4955061;29;20031;-77
2023/12/11 07:26:21;;;;;;;0.10;0.10;;;11.50;99.90;;;;;;4937849;29;20031;-76
2023/12/11 07:28:46;;;;;;;2.00;0.50;;;11.50;99.90;;;;;;4937862;29;20511;-77
2023/12/11 07:31:12;;;;;;;0.30;0.15;;;11.40;99.90;;;;;;4958346;29;20027;-76
2023/12/11 07:33:38;;;;;;;0.68;0.20;;;11.40;99.90;;;;;;4941205;29;20019;-77
2023/12/11 07:36:04;;;;;;;0.45;0.25;;;11.30;99.90;;;;;;4958302;29;20047;-76
2023/12/11 07:38:30;;;;;;;0.77;0.77;;;11.20;99.90;;;;;;4958631;29;20459;-76
2023/12/11 07:40:57;;;;;;;0.30;0.30;;;11.10;99.90;;;;;;4941179;29;20039;-76
2023/12/11 07:43:23;;;;;;;1.38;0.60;;;11.10;99.90;;;;;;4958300;29;20027;-76
2023/12/11 07:45:48;;;;;;;4.85;0.50;;;11.00;99.90;;;;;;4940759;29;20035;-76
2023/12/11 07:48:14;;;;;;;3.83;0.38;;;11.00;99.90;;;;;;4940973;29;20024;-77
2023/12/11 07:50:40;;;;;;;0.65;0.47;;;10.90;99.90;;;;;;4940922;29;20412;-76
2023/12/11 07:53:06;;;;;;;0.90;0.35;;;10.90;99.90;;;;;;4958147;29;20027;-77
2023/12/11 07:55:31;;;;;;;1.48;0.55;;;10.90;99.90;;;;;;4940917;29;20395;-77
2023/12/11 07:57:57;;;;;;;2.90;1.23;;;10.80;99.90;;;;;;4958247;29;20031;-77
2023/12/11 08:00:23;;;;;;;0.25;0.25;;;10.70;99.90;;;;;;4958234;29;20058;-77
2023/12/11 08:02:50;;;;;;;0.30;0.30;;;10.70;99.90;;;;;;4958209;29;20027;-77
2023/12/11 08:05:16;;;;;;;0.77;0.50;;;10.70;99.90;;;;;;4957950;29;20078;-77
2023/12/11 08:07:42;;;;;;;0.70;0.50;;;10.80;99.90;;;;;;4958443;29;20035;-77
2023/12/11 08:10:08;;;;;;;1.30;0.20;;;10.70;99.90;;;;;;4941087;29;20099;-77
2023/12/11 08:12:33;;;;;;;1.75;0.68;;;10.70;99.90;;;;;;4940309;29;20051;-77
2023/12/11 08:14:59;;;;;;;1.77;0.30;;;10.70;99.90;;;;;;4957626;29;20474;-77
2023/12/11 08:17:25;;;;;;;1.85;0.40;;;10.70;99.90;;;;;;4940474;29;20035;-77
2023/12/11 08:19:51;;;;;;;0.20;0.20;;;10.70;99.90;;;;;;4940281;29;20154;-77
2023/12/11 08:22:17;;;;;;;1.85;0.40;;;10.60;99.90;;;;;;4940068;29;20027;-77
2023/12/11 08:24:43;;;;;;;1.33;0.52;;;10.60;99.90;;;;;;4957506;29;20034;-76
2023/12/11 08:27:09;;;;;;;3.22;0.25;;;10.60;99.90;;;;;;4957327;29;20030;-77
2023/12/11 08:29:35;;;;;;;1.05;0.30;;;10.60;99.90;;;;;;4957389;29;20020;-76
2023/12/11 08:32:02;;;;;;;1.45;0.40;;;10.60;99.90;;;;;;4940055;29;20069;-76
2023/12/11 08:34:28;;;;;;;1.10;0.20;;;10.60;99.90;;;;;;4957372;29;20090;-77
2023/12/11 08:36:54;;;;;;;1.67;0.47;;;10.60;99.90;;;;;;4939870;29;20447;-76
2023/12/11 08:39:20;;;;;;;3.00;0.57;;;10.60;99.90;;;;;;4957056;28;20023;-76
2023/12/11 08:41:47;;;;;;;3.42;0.40;;;10.60;99.90;;;;;;4956842;29;20027;-76
2023/12/11 08:44:13;;;;;;;0.00;0.00;;;10.60;99.90;;;;;;4957126;29;20050;-77
2023/12/11 08:46:39;;;;;;;0.15;0.15;;;10.60;99.90;;;;;;4957067;29;20019;-77
2023/12/11 08:49:05;;;;;;;0.15;0.15;;;10.60;99.90;;;;;;4940347;29;20023;-77
2023/12/11 08:51:31;;;;;;;0.20;0.10;;;10.60;99.90;;;;;;4940000;29;20027;-74
2023/12/11 08:53:57;;;;;;;0.25;0.20;;;10.50;99.90;;;;;;4956928;29;20075;-75
2023/12/11 08:56:23;;;;;;;1.30;0.35;;;10.60;99.90;;;;;;4956826;29;20432;-77
2023/12/11 08:58:50;;;;;;;0.20;0.20;;;10.50;99.90;;;;;;4939460;29;20487;-74
2023/12/11 09:01:15;;;;;;;0.10;0.10;;;10.50;99.90;;;;;;4956780;29;20031;-74
2023/12/11 09:03:44;;;;;;;2.20;0.35;;;10.40;99.90;;;;;;4956705;29;20484;-74
2023/12/11 09:06:10;;;;;;;1.27;0.30;;;10.40;99.90;;;;;;4939412;29;20027;-74
2023/12/11 09:08:35;;;;;;;0.45;0.20;;;10.30;99.90;;;;;;4956600;29;20035;-74
2023/12/11 09:11:01;;;;;;;0.85;0.20;;;10.30;99.90;;;;;;4956516;29;20031;-74
2023/12/11 09:13:27;;;;;;;0.50;0.50;;;10.30;99.90;;;;;;4956451;29;20050;-74
2023/12/11 09:15:53;;;;;;;0.20;0.20;;;10.30;99.90;;;;;;4956381;29;20035;-74
2023/12/11 09:18:18;;;;;;;0.28;0.10;;;10.30;99.90;;;;;;4956667;29;20384;-74
2023/12/11 09:20:44;;;;;;;0.20;0.20;;;10.30;99.90;;;;;;4956402;29;20479;-75
2023/12/11 09:23:10;;;;;;;0.43;0.20;;;10.30;99.90;;;;;;4956329;29;20106;-74
2023/12/11 09:25:36;;;;;;;0.52;0.52;;;10.30;99.90;;;;;;4939092;29;20027;-74
2023/12/11 09:28:04;;;;;;;0.35;0.20;;;10.30;99.90;;;;;;4956520;29;20031;-74
2023/12/11 09:30:30;;;;;;;0.80;0.50;;;10.40;99.90;;;;;;4956424;29;20034;-74
2023/12/11 09:32:56;;;;;;;0.63;0.50;;;10.50;99.90;;;;;;4956249;29;20031;-74
2023/12/11 09:35:21;;;;;;;2.83;1.00;;;10.50;99.90;;;;;;4956062;29;20089;-74
2023/12/11 09:37:47;;;;;;;1.00;0.22;;;10.60;99.90;;;;;;4956078;29;20031;-74
2023/12/11 09:40:13;;;;;;;0.10;0.10;;;10.60;99.90;;;;;;4956197;29;20440;-75
2023/12/11 09:42:43;;;;;;;0.30;0.30;;;10.60;99.90;;;;;;4956058;29;20031;-74
2023/12/11 09:45:11;;;;;;;0.50;0.25;;;10.70;99.90;;;;;;4956074;29;20030;-74
2023/12/11 09:47:42;;;;;;;0.77;0.40;;;10.70;99.90;;;;;;4956047;29;20016;-74
2023/12/11 09:50:08;;;;;;;0.35;0.20;;;10.70;99.90;;;;;;4938897;29;20027;-74
2023/12/11 09:52:39;;;;;;;0.47;0.40;;;10.70;99.90;;;;;;4955142;28;20030;-74
2023/12/11 09:55:06;;;;;;;1.30;0.25;;;10.70;99.90;;;;;;4955713;29;20027;-74
2023/12/11 09:57:33;;;;;;;0.30;0.30;;;10.80;99.90;;;;;;4955709;29;20036;-75
2023/12/11 09:59:58;;;;;;;2.10;0.30;;;10.90;99.90;;;;;;4955867;29;20031;-75
2023/12/11 10:02:25;;;;;;;2.35;0.38;;;10.90;99.90;;;;;;4955849;29;20035;-75
2023/12/11 10:05:04;;;;;;;1.27;0.30;;;11.00;99.90;;;;;;4955722;29;20106;-74
2023/12/11 10:07:32;;;;;;;0.30;0.20;;;10.90;99.90;;;;;;4955840;29;20078;-73
2023/12/11 10:09:58;;;;;;;0.10;0.10;;;11.00;99.90;;;;;;4955729;29;20023;-75
2023/12/11 10:12:24;;;;;;;3.10;0.20;;;11.00;99.90;;;;;;4955371;29;20039;-75
2023/12/11 10:15:01;;;;;;;0.63;0.20;;;11.10;99.90;;;;;;4955567;29;20110;-75
2023/12/11 10:17:27;;;;;;;1.95;0.22;;;11.10;99.90;;;;;;4955444;29;20049;-74
2023/12/11 10:19:53;;;;;;;0.43;0.25;;;11.20;99.90;;;;;;4955655;29;20024;-73
2023/12/11 10:22:30;;;;;;;3.42;0.40;;;11.20;99.90;;;;;;4938248;29;20388;-74
2023/12/11 10:24:57;;;;;;;1.77;0.20;;;11.20;99.90;;;;;;4955451;29;20015;-74
2023/12/11 10:27:23;;;;;;;0.10;0.10;;;11.30;99.90;;;;;;4938256;29;20034;-73
2023/12/11 10:30:11;;;;;;;0.40;0.28;;;11.20;99.90;;;;;;4938310;29;20023;-74
2023/12/11 10:32:37;;;;;;;0.98;0.10;;;11.30;99.90;;;;;;4938291;29;20448;-74
2023/12/11 10:35:05;;;;;;;0.43;0.20;;;11.30;99.90;;;;;;4938328;29;20050;-75
2023/12/11 10:37:32;;;;;;;0.65;0.65;;;11.20;99.90;;;;;;4938093;29;20039;-73
2023/12/11 10:39:58;;;;;;;0.00;0.00;;;11.20;99.90;;;;;;4955291;29;20055;-75
2023/12/11 10:42:24;;;;;;;0.30;0.22;;;11.20;99.90;;;;;;4955595;29;20105;-75
2023/12/11 10:44:51;;;;;;;1.17;0.55;;;11.20;99.90;;;;;;4955441;29;20106;-76
2023/12/11 10:47:17;;;;;;;0.98;0.30;;;11.20;99.90;;;;;;4955487;29;20019;-77
2023/12/11 10:49:44;;;;;;;0.65;0.35;;;11.20;99.90;;;;;;4955130;29;20027;-75
2023/12/11 10:52:10;;;;;;;0.43;0.10;;;11.10;99.90;;;;;;4938133;29;20420;-74
2023/12/11 10:54:41;;;;;;;2.90;0.20;;;11.10;99.90;;;;;;4955593;29;20110;-77
2023/12/11 10:57:11;;;;;;;1.05;0.10;;;11.00;99.90;;;;;;4955678;29;20031;-73
2023/12/11 10:59:38;;;;;;;0.43;0.10;;;10.90;99.90;;;;;;4955596;29;20030;-73
2023/12/11 11:02:06;;;;;;;0.98;0.10;;;10.90;99.90;;;;;;4938430;29;20144;-76
2023/12/11 11:04:36;;;;;;;0.45;0.20;;;10.90;99.90;;;;;;4941421;29;20051;-74
2023/12/11 11:07:25;;;;;;;0.20;0.10;;;10.80;99.90;;;;;;4958736;29;20078;-73
2023/12/11 11:09:53;;;;;;;0.00;0.00;;;10.80;99.90;;;;;;4958902;29;20027;-72
2023/12/11 11:12:28;;;;;;;0.10;0.10;;;10.80;99.90;;;;;;4958550;29;20057;-74
2023/12/11 11:14:54;;;;;;;1.17;0.40;;;10.80;99.90;;;;;;4958701;29;20532;-74
2023/12/11 11:17:23;;;;;;;0.10;0.00;;;10.90;99.90;;;;;;4958710;29;20043;-73
2023/12/11 11:20:07;;;;;;;0.85;0.10;;;10.90;99.90;;;;;;4958611;29;20433;-73
2023/12/11 11:22:33;;;;;;;0.10;0.10;;;10.80;99.90;;;;;;4958605;29;20104;-74
2023/12/11 11:25:31;;;;;;;0.03;0.03;;;10.80;99.90;;;;;;4958608;29;20031;-73
2023/12/11 11:27:57;;;;;;;0.10;0.10;;;10.70;99.90;;;;;;4941204;29;20031;-75
2023/12/11 11:30:41;;;;;;;1.65;0.15;;;10.70;99.90;;;;;;4958078;29;20053;-75
2023/12/11 11:33:10;;;;;;;0.10;0.10;;;10.70;99.90;;;;;;4941247;29;20023;-74
2023/12/11 11:35:45;;;;;;;0.55;0.20;;;10.70;99.90;;;;;;4958256;29;20034;-72
2023/12/11 11:38:11;;;;;;;0.08;0.08;;;10.60;99.90;;;;;;4958314;29;20039;-72
2023/12/11 11:40:37;;;;;;;0.10;0.10;;;10.60;99.90;;;;;;4958350;29;20031;-73
2023/12/11 11:43:03;;;;;;;0.10;0.10;;;10.60;99.90;;;;;;4958127;29;20472;-73
2023/12/11 11:45:30;;;;;;;0.10;0.10;;;10.60;99.90;;;;;;4957987;29;20026;-75
2023/12/11 11:47:56;;;;;;;0.28;0.10;;;10.60;99.90;;;;;;4958043;29;20384;-74
2023/12/11 11:50:21;;;;;;;1.33;0.13;;;10.70;99.90;;;;;;4957956;29;20034;-74
2023/12/11 11:52:58;;;;;;;0.00;0.00;;;10.80;99.90;;;;;;4958003;29;20027;-74
2023/12/11 11:55:27;;;;;;;0.10;0.10;;;10.90;99.90;;;;;;4957993;29;20388;-73
2023/12/11 11:57:54;;;;;;;0.80;0.00;;;11.00;99.90;;;;;;4940676;29;20066;-73
2023/12/11 12:00:28;;;;;;;0.00;0.00;;;11.10;99.90;;;;;;4957853;29;20030;-76
2023/12/11 12:02:57;;;;;;;0.30;0.20;;;11.30;99.90;;;;;;4957690;29;20027;-73
2023/12/11 12:05:23;;;;;;;0.00;0.00;;;11.30;99.90;;;;;;4940532;29;20499;-76
2023/12/11 12:07:49;;;;;;;0.00;0.00;;;11.30;99.90;;;;;;4957777;29;20106;-74
2023/12/11 12:10:17;;;;;;;0.10;0.03;;;11.40;99.90;;;;;;4940542;29;20091;-73
2023/12/11 12:12:43;;;;;;;0.52;0.10;;;11.40;99.90;;;;;;4940224;29;20516;-75
2023/12/11 12:15:10;;;;;;;0.47;0.03;;;11.40;99.90;;;;;;4956909;28;20110;-73
2023/12/11 12:17:39;;;;;;;0.20;0.00;;;11.40;99.90;;;;;;4957619;29;20031;-74
2023/12/11 12:20:17;;;;;;;0.03;0.00;;;11.30;99.90;;;;;;4957532;29;20480;-74
2023/12/11 12:23:03;;;;;;;0.15;0.15;;;11.20;99.90;;;;;;4940262;29;20090;-76
2023/12/11 12:25:30;;;;;;;0.00;0.00;;;11.20;99.90;;;;;;4957417;29;20023;-77
2023/12/11 12:28:00;;;;;;;0.00;0.00;;;11.20;99.90;;;;;;4957509;29;20020;-73
2023/12/11 12:30:27;;;;;;;0.00;0.00;;;11.10;99.90;;;;;;4957481;29;20023;-76
2023/12/11 12:32:54;;;;;;;0.10;0.10;;;11.20;99.90;;;;;;4957340;29;20026;-75
2023/12/11 12:35:21;;;;;;;0.47;0.47;;;11.20;99.90;;;;;;4957222;29;20106;-77
2023/12/11 12:37:49;;;;;;;0.00;0.00;;;11.20;99.90;;;;;;4956919;29;20039;-73
2023/12/11 12:40:18;;;;;;;0.15;0.10;;;11.20;99.90;;;;;;4939840;29;20035;-77
2023/12/11 12:42:44;;;;;;;1.85;0.25;;;11.20;99.90;;;;;;4957250;29;20023;-77
2023/12/11 12:45:10;;;;;;;0.85;0.00;;;11.20;99.90;;;;;;4957349;29;20033;-74
2023/12/11 12:47:48;;;;;;;0.35;0.20;;;11.30;99.90;;;;;;4956770;29;20035;-76